Flight Track Log - Related Links

Times and Time Zones

All times are in EDT time to prevent confusion due to time zone crossing. See the AWE1940 flight status page for this flight to view local times or setup timezone preferences in your user account.

Time Position Orientation Groundspeed Altitude Reporting Facility
EDT Latitude Longitude Course Direction KTS km/h feet Rate Location/Type
Fri 07:10:00 PM 26.8661 -81.7333 North  Level FlightAware Approximate
Fri 07:10:03 PM 26.6600 -81.6958 344° North 279 517 5.700  Level Miami Center
Fri 07:11:00 PM 26.9775 -81.7333 North  Level FlightAware Approximate
Fri 07:11:03 PM 26.7328 -81.7081 351° North 274 507 8.700  Level Miami Center
Fri 07:12:00 PM 27.0847 -81.7605 340° North  Level FlightAware Approximate
Fri 07:12:03 PM 26.8117 -81.7183 353° North 274 507 10.800  Level Miami Center
Fri 07:13:00 PM 27.1912 -81.7971 343° North  Level FlightAware Approximate
Fri 07:13:03 PM 26.9075 -81.7294 354° North 305 565 12.400  Level Miami Center
Fri 07:14:00 PM 27.2971 -81.8355 340° North  Level FlightAware Approximate
Fri 07:14:03 PM 27.0042 -81.7125 North 326 604 14.900  Level Miami Center
Fri 07:15:00 PM 27.4033 -81.8733 344° North  Level FlightAware Approximate
Fri 07:15:03 PM 27.1072 -81.6864 13° North 351 650 17.000  Level Miami Center
Fri 07:16:03 PM 27.2083 -81.6603 13° North 370 686 18.900 1.950 Climbing Miami Center
Fri 07:17:03 PM 27.3303 -81.6328 11° North 387 716 20.900 1.800 Climbing Miami Center
Fri 07:18:03 PM 27.4397 -81.6044 13° North 395 732 22.500 1.550 Climbing Miami Center
Fri 07:19:03 PM 27.5575 -81.5767 12° North 410 760 24.000 1.600 Climbing Miami Center
Fri 07:20:03 PM 27.6628 -81.5506 12° North 423 784 25.700 1.500 Climbing Miami Center
Fri 07:21:03 PM 27.7783 -81.5222 12° North 423 784 27.000 1.100 Climbing Miami Center
Fri 07:22:03 PM 27.9003 -81.4944 11° North 433 801 27.900 1.100 Climbing Miami Center
Fri 07:23:03 PM 28.0203 -81.4664 12° North 433 801 29.200 1.200 Climbing Miami Center
Fri 07:24:03 PM 28.1464 -81.4339 13° North 433 801 30.300 1.400 Climbing Miami Center
Fri 07:25:03 PM 28.2703 -81.4131 North 438 811 32.000 1.350 Climbing Miami Center
Fri 07:26:03 PM 28.3864 -81.4319 352° North 425 787 33.000 917 Climbing Miami Center
Fri 07:30:04 PM 28.8503 -81.5486 348° North 429 795 36.600 797 Climbing Jacksonville Center
Fri 07:31:04 PM 28.9675 -81.5753 349° North 429 795 37.000 200 Climbing Jacksonville Center
Fri 07:32:04 PM 29.0806 -81.6047 347° North 423 784 37.000  Level Jacksonville Center
Fri 07:33:04 PM 29.1936 -81.6342 347° North 406 752 37.000  Level Jacksonville Center
Fri 07:34:04 PM 29.3169 -81.6661 347° North 406 752 37.000  Level Jacksonville Center
Fri 07:35:04 PM 29.4300 -81.6956 347° North 411 761 37.000  Level Jacksonville Center
Fri 07:36:04 PM 29.5431 -81.7228 348° North 411 761 37.000  Level Jacksonville Center
Fri 07:37:04 PM 29.6558 -81.7503 348° North 411 761 37.000  Level Jacksonville Center
Fri 07:38:04 PM 29.7689 -81.7800 347° North 411 761 37.000 50 Level Jacksonville Center
Fri 07:39:04 PM 29.8839 -81.8097 347° North 411 761 37.100 50 Climbing Jacksonville Center
Fri 07:40:04 PM 29.9969 -81.8397 347° North 416 771 37.100 -50 Level Jacksonville Center
Fri 07:41:04 PM 30.1036 -81.8603 351° North 416 771 37.000 -50 Descending Jacksonville Center
Fri 07:42:04 PM 30.2186 -81.8806 351° North 416 771 37.000  Level Jacksonville Center
Fri 07:43:04 PM 30.3375 -81.8719 North 416 771 37.000  Level Jacksonville Center
Fri 07:44:04 PM 30.4564 -81.8539 North 422 782 37.000  Level Jacksonville Center
Fri 07:45:04 PM 30.5817 -81.8406 North 429 795 37.000  Level Jacksonville Center
Fri 07:46:04 PM 30.6964 -81.8247 North 429 795 37.000  Level Jacksonville Center
Fri 07:47:04 PM 30.8111 -81.8089 North 419 776 37.000  Level Jacksonville Center
Fri 07:48:04 PM 30.9258 -81.7931 North 419 776 37.000  Level Jacksonville Center
Fri 07:49:04 PM 31.0447 -81.7772 North 424 785 37.000 -150 Level Jacksonville Center
Fri 07:50:04 PM 31.1614 -81.7589 North 424 785 36.700 -600 Descending Jacksonville Center
Fri 07:51:04 PM 31.2764 -81.7694 356° North 419 776 35.800 -800 Descending Jacksonville Center
Fri 07:52:04 PM 31.3894 -81.7997 347° North 419 776 35.100 -350 Descending Jacksonville Center
Fri 07:53:04 PM 31.5128 -81.8350 346° North 411 761 35.100 -38 Level Jacksonville Center
Fri 07:54:41 PM 31.6986 -81.8861 347° North 430 797 35.000 -38 Descending Atlanta Center
Fri 07:55:41 PM 31.8056 -81.9203 345° North 413 764 35.000  Level Atlanta Center
Fri 07:56:41 PM 31.9167 -81.9494 347° North 408 756 35.000 50 Level Atlanta Center
Fri 07:57:41 PM 32.0256 -81.9736 349° North 403 747 35.100  Climbing Atlanta Center
Fri 07:58:41 PM 32.1428 -81.9858 355° North 398 737 35.000 -50 Descending Atlanta Center
Fri 07:59:41 PM 32.2472 -81.9981 354° North 398 737 35.000 50 Level Atlanta Center
Fri 08:00:41 PM 32.3603 -82.0103 355° North 393 727 35.100 50 Climbing Atlanta Center
Fri 08:01:41 PM 32.4731 -82.0225 355° North 399 739 35.100 -250 Level Atlanta Center
Fri 08:02:41 PM 32.5839 -82.0347 355° North 399 739 34.600 -700 Descending Atlanta Center
Fri 08:03:41 PM 32.6947 -82.0469 355° North 399 739 33.700 -950 Descending Atlanta Center
Fri 08:04:41 PM 32.8078 -82.0592 355° North 404 748 32.700 -1.000 Descending Atlanta Center
Fri 08:05:41 PM 32.9247 -82.0714 355° North 409 758 31.700 -1.000 Descending Atlanta Center
Fri 08:06:41 PM 33.0439 -82.0861 354° North 416 771 30.700 -950 Descending Atlanta Center
Fri 08:07:41 PM 33.1611 -82.1008 354° North 423 784 29.800 -850 Descending Atlanta Center
Fri 08:08:41 PM 33.2781 -82.1131 355° North 423 784 29.000 -400 Descending Atlanta Center
Fri 08:09:41 PM 33.3975 -82.1278 354° North 423 784 29.000  Level Atlanta Center
Fri 08:10:41 PM 33.5125 -82.1403 355° North 423 784 29.000 -300 Level Atlanta Center
Fri 08:11:41 PM 33.6294 -82.1528 355° North 423 784 28.400 -800 Descending Atlanta Center
Fri 08:12:41 PM 33.7361 -82.1603 357° North 423 784 27.400 -950 Descending Atlanta Center
Fri 08:13:41 PM 33.8550 -82.1603 360° North 423 784 26.500 -950 Descending Atlanta Center
Fri 08:14:41 PM 33.9675 -82.1528 North 417 772 25.500 -1.000 Descending Atlanta Center
Fri 08:15:41 PM 34.0686 -82.0803 31° Northeast 406 752 24.500 -1.300 Descending Atlanta Center
Fri 08:16:41 PM 34.1678 -82.0028 33° Northeast 406 752 22.900 -1.450 Descending Atlanta Center
Fri 08:17:41 PM 34.2603 -81.9275 34° Northeast 406 752 21.600 -1.550 Descending Atlanta Center
Fri 08:18:41 PM 34.3528 -81.8522 34° Northeast 406 752 19.800 -1.900 Descending Atlanta Center
Fri 08:19:41 PM 34.4433 -81.7819 33° Northeast 394 729 17.800 -1.904 Descending Atlanta Center
Fri 08:20:25 PM 34.5194 -81.7194 34° Northeast 392 726 16.500 -1.400 Descending Atlanta Center
Fri 08:20:41 PM 34.5339 -81.7064 37° Northeast 389 721 16.400 -1.765 Descending Atlanta Center
Fri 08:21:50 PM 34.6408 -81.6200 34° Northeast 381 705 14.000 -1.985 Descending Atlanta Center
Fri 08:22:51 PM 34.7331 -81.5442 34° Northeast 373 690 12.100 -984 Descending Atlanta Center
Fri 08:23:52 PM 34.8044 -81.4561 45° Northeast 362 671 12.000 -382 Descending Atlanta Center
Fri 08:24:41 PM 34.8511 -81.3964 46° Northeast 356 660 11.400 -881 Descending Atlanta Center
Fri 08:25:41 PM 34.9139 -81.3133 47° Northeast 340 629 10.400 -1.063 Descending Atlanta Center
Fri 08:26:00 PM 34.9422 -81.2769 46° Northeast 314 581 10.000 -400 Descending Atlanta Center
Fri 08:26:41 PM 34.9767 -81.2328 46° Northeast 324 600 10.000 -327 Level Atlanta Center
Fri 08:27:50 PM 35.0478 -81.1389 47° Northeast 302 560 9.400 -462 Descending Atlanta Center
Fri 08:28:51 PM 35.1086 -81.0683 43° Northeast 278 515 9.000 -216 Descending Atlanta Center
Fri 08:29:41 PM 35.1689 -81.0661 North 261 483 9.000 -378 Level Atlanta Center
Fri 08:30:58 PM 35.2528 -81.0758 355° North 220 407 8.200 -955 Descending Atlanta Center
Fri 08:31:53 PM 35.3114 -81.0814 356° North 222 410 6.900 -1.655 Descending Atlanta Center
Fri 08:32:54 PM 35.3761 -81.0867 356° North 231 428 5.000 -1.426 Descending Atlanta Center
Fri 08:33:55 PM 35.4144 -81.0369 47° Northeast 233 431 4.000 -492 Descending Atlanta Center
Fri 08:34:56 PM 35.3758 -80.9950 138° Southeast 189 349 4.000  Level Atlanta Center

Login

Don't have an account? Register now (free) for customized features, flight alerts, and more!